Pawtucket, RI

5:12 AM EDT on May 23, 2017 (GMT -0400)
North Central State

Weather History for KSFZ - December, 2012

Change the Weather History Date:

Wednesday, December 19, 2012

  Actual Average Record
Temperature  
Mean Temperature 40 °F -  
Max Temperature 46 °F 38 °F 48 °F (1996)
Min Temperature 35 °F 24 °F 10 °F (2011)
Degree Days  
Heating Degree Days 24    
Moisture  
Dew Point 29 °F    
Average Humidity 64    
Maximum Humidity 81    
Minimum Humidity 53    
Precipitation  
Precipitation 0.00 in - - ()
Sea Level Pressure  
Sea Level Pressure 29.68 in    
Wind  
Wind Speed 14 mph (NW)    
Max Wind Speed 25 mph    
Max Gust Speed 32 mph    
Visibility 10 miles    
Events      
Averages and records for this station are not official NWS values.
T = Trace of Precipitation, MM = Missing Value Source: NWS Daily Summary

Daily Weather History Graph

Daily Weather History Graph

Search for Another Location

Airport or City:

Trip Planner

Search our weather history database for the weather conditions in past years. The results will help you decide how hot, cold, wet, or windy it might be!

Date:

Astronomy

Dec. 19, 2012 Rise Set
Actual Time 7:09 AM EST 4:17 PM EST
Civil Twilight 6:37 AM EST 4:48 PM EST
Nautical Twilight 6:02 AM EST 5:24 PM EST
Astronomical Twilight 5:28 AM EST 5:58 PM EST
Moon 11:10 AM EST (12/19) 11:48 PM EST (12/19)
Length of Visible Light 10h 11m
Length of Day
9h 07m
Waxing Crescent, 45% of the Moon is Illuminated
Dec 19
Waxing Crescent
Dec 20
First Quarter
Dec 28
Full
Jan 4
Last Quarter
Jan 11
New

Hourly Weather History & Observations

Time (EST) Temp. Windchill Dew Point Humidity Pressure Visibility Wind Dir Wind Speed Gust Speed Precip Events Conditions
12:35 AM 42.8 °F 36.2 °F 37.4 °F 81% 29.46 in 10.0 mi West 12.7 mph 19.6 mph N/A   Overcast
12:55 AM 42.8 °F 35.1 °F 35.6 °F 76% 29.46 in 10.0 mi WNW 16.1 mph 21.9 mph N/A   Overcast
1:15 AM 41.0 °F 33.1 °F 33.8 °F 76% 29.46 in 10.0 mi WNW 15.0 mph 24.2 mph N/A   Scattered Clouds
1:55 AM 39.2 °F 31.6 °F 32.0 °F 75% 29.46 in 10.0 mi West 12.7 mph 20.7 mph N/A   Clear
2:16 AM 39.2 °F 31.6 °F 32.0 °F 75% 29.46 in 10.0 mi WNW 12.7 mph - N/A   Clear
2:35 AM 39.2 °F 31.6 °F 30.2 °F 70% 29.46 in 10.0 mi West 12.7 mph 17.3 mph N/A   Clear
3:15 AM 39.2 °F 30.8 °F 30.2 °F 70% 29.47 in 10.0 mi WNW 15.0 mph 19.6 mph N/A   Clear
3:35 AM 39.2 °F 31.6 °F 30.2 °F 70% 29.47 in 10.0 mi West 12.7 mph - N/A   Clear
3:55 AM 39.2 °F 30.5 °F 30.2 °F 70% 29.48 in 10.0 mi WNW 16.1 mph 20.7 mph N/A   Clear
4:15 AM 39.2 °F 31.2 °F 30.2 °F 70% 29.48 in 10.0 mi West 13.8 mph 20.7 mph N/A   Clear
4:35 AM 39.2 °F 30.5 °F 30.2 °F 70% 29.48 in 10.0 mi WNW 16.1 mph 21.9 mph N/A   Scattered Clouds
4:55 AM 39.2 °F 30.5 °F 28.4 °F 65% 29.49 in 10.0 mi WNW 16.1 mph 26.5 mph N/A   Overcast
5:15 AM 39.2 °F 30.5 °F 28.4 °F 65% 29.49 in 10.0 mi NW 16.1 mph 24.2 mph N/A   Overcast
5:35 AM 39.2 °F 29.6 °F 28.4 °F 65% 29.50 in 10.0 mi NW 19.6 mph 29.9 mph N/A   Overcast
5:55 AM 39.2 °F 29.8 °F 28.4 °F 65% 29.51 in 10.0 mi NW 18.4 mph 26.5 mph N/A   Overcast
6:15 AM 39.2 °F 31.6 °F 28.4 °F 65% 29.51 in 10.0 mi NW 12.7 mph 25.3 mph N/A   Overcast
6:35 AM 39.2 °F 31.2 °F 28.4 °F 65% 29.52 in 10.0 mi NW 13.8 mph 24.2 mph N/A   Overcast
6:55 AM 39.2 °F 32.0 °F 28.4 °F 65% 29.53 in 10.0 mi WNW 11.5 mph 24.2 mph N/A   Overcast
7:15 AM 39.2 °F 32.0 °F 28.4 °F 65% 29.53 in 10.0 mi WNW 11.5 mph 20.7 mph N/A   Mostly Cloudy
7:55 AM 39.2 °F 31.6 °F 28.4 °F 65% 29.54 in 10.0 mi WNW 12.7 mph 28.8 mph N/A   Scattered Clouds
8:15 AM 39.2 °F 31.6 °F 28.4 °F 65% 29.55 in 10.0 mi NW 12.7 mph 19.6 mph N/A   Clear
8:35 AM 41.0 °F 31.4 °F 28.4 °F 61% 29.56 in 10.0 mi NW 21.9 mph 27.6 mph N/A   Scattered Clouds
8:55 AM 41.0 °F 33.9 °F 28.4 °F 61% 29.57 in 10.0 mi NW 12.7 mph 26.5 mph N/A   Mostly Cloudy
9:15 AM 41.0 °F 33.1 °F 28.4 °F 61% 29.57 in 1.2 mi NW 15.0 mph 20.7 mph N/A   Overcast
9:35 AM 41.0 °F 32.5 °F 28.4 °F 61% 29.57 in - NW 17.3 mph 23.0 mph N/A   Overcast
10:15 AM 42.8 °F - 28.4 °F 57% 29.58 in 1.0 mi Calm Calm - N/A   Overcast
10:35 AM 44.6 °F 36.6 °F 28.4 °F 53% 29.58 in 0.8 mi NW 19.6 mph 29.9 mph N/A   Mostly Cloudy
11:35 AM 44.6 °F 36.4 °F 28.4 °F 53% 29.60 in 9.0 mi NNW 20.7 mph 28.8 mph N/A   Mostly Cloudy
11:55 AM 46.4 °F 39.0 °F 30.2 °F 53% 29.61 in 9.0 mi NNW 19.6 mph 27.6 mph N/A   Overcast
12:55 PM 44.6 °F 37.8 °F 28.4 °F 53% 29.64 in 10.0 mi NW 15.0 mph 26.5 mph N/A   Overcast
1:15 PM 44.6 °F 38.1 °F 28.4 °F 53% 29.65 in 10.0 mi NW 13.8 mph 25.3 mph N/A   Overcast
1:35 PM 44.6 °F 38.1 °F 28.4 °F 53% 29.66 in 10.0 mi NW 13.8 mph 27.6 mph N/A   Overcast
1:55 PM 42.8 °F 34.5 °F 28.4 °F 57% 29.67 in 10.0 mi NNW 18.4 mph 26.5 mph N/A   Overcast
2:15 PM 42.8 °F 34.8 °F 28.4 °F 57% 29.68 in 10.0 mi NNW 17.3 mph 29.9 mph N/A   Overcast
2:55 PM 42.8 °F 34.5 °F 28.4 °F 57% 29.71 in 10.0 mi NW 18.4 mph 28.8 mph N/A   Overcast
3:15 PM 42.8 °F 33.8 °F 28.4 °F 57% 29.72 in 10.0 mi NNW 21.9 mph 28.8 mph N/A   Overcast
3:35 PM 42.8 °F 34.0 °F 26.6 °F 53% 29.73 in 10.0 mi NNW 20.7 mph 31.1 mph N/A   Overcast
3:55 PM 42.8 °F 33.1 °F 26.6 °F 53% 29.75 in 10.0 mi NNW 25.3 mph 32.2 mph N/A   Overcast
4:15 PM 42.8 °F 36.6 °F 28.4 °F 57% 29.76 in 10.0 mi NNW 11.5 mph 28.8 mph N/A   Overcast
4:35 PM 42.8 °F 33.8 °F 28.4 °F 57% 29.77 in 10.0 mi NNW 21.9 mph 26.5 mph N/A   Overcast
4:55 PM 41.0 °F 33.9 °F 28.4 °F 61% 29.78 in 10.0 mi NNW 12.7 mph 27.6 mph N/A   Overcast
6:15 PM 41.0 °F 33.1 °F 26.6 °F 57% 29.85 in 10.0 mi NNW 15.0 mph 20.7 mph N/A   Mostly Cloudy
6:35 PM 39.2 °F 31.6 °F 26.6 °F 61% 29.87 in 10.0 mi NNW 12.7 mph 19.6 mph N/A   Scattered Clouds
6:55 PM 39.2 °F 32.0 °F 26.6 °F 61% 29.88 in 10.0 mi NNW 11.5 mph 17.3 mph N/A   Scattered Clouds
7:15 PM 39.2 °F 31.6 °F 26.6 °F 61% 29.89 in 10.0 mi NNW 12.7 mph 19.6 mph N/A   Scattered Clouds
7:35 PM 39.2 °F 33.0 °F 26.6 °F 61% 29.91 in 10.0 mi NNW 9.2 mph - N/A   Clear
8:15 PM 37.4 °F 29.8 °F 26.6 °F 65% 29.92 in 10.0 mi NNW 11.5 mph - N/A   Clear
8:35 PM 37.4 °F 31.4 °F 26.6 °F 65% 29.94 in 10.0 mi NNW 8.1 mph - N/A   Clear
8:55 PM 37.4 °F 29.8 °F 26.6 °F 65% 29.95 in 10.0 mi NNW 11.5 mph - N/A   Clear
9:15 PM 37.4 °F 30.3 °F 26.6 °F 65% 29.95 in 10.0 mi NNW 10.4 mph - N/A   Clear
9:35 PM 37.4 °F 31.4 °F 26.6 °F 65% 29.97 in 10.0 mi NW 8.1 mph - N/A   Clear
9:55 PM 37.4 °F 31.4 °F 26.6 °F 65% 29.97 in 10.0 mi NW 8.1 mph - N/A   Clear
10:15 PM 37.4 °F 31.4 °F 26.6 °F 65% 29.98 in 10.0 mi NW 8.1 mph - N/A   Clear
10:35 PM 35.6 °F 29.2 °F 26.6 °F 70% 29.99 in 10.0 mi NNW 8.1 mph - N/A   Clear
10:55 PM 35.6 °F 29.2 °F 26.6 °F 70% 30.00 in 10.0 mi NNW 8.1 mph - N/A   Clear
11:15 PM 35.6 °F 29.9 °F 26.6 °F 70% 30.00 in 10.0 mi NNW 6.9 mph - N/A   Clear
11:35 PM 35.6 °F 29.9 °F 26.6 °F 70% 30.01 in 10.0 mi NW 6.9 mph - N/A   Clear
11:55 PM 35.6 °F 28.6 °F 26.6 °F 70% 30.01 in 10.0 mi NNW 9.2 mph - N/A   Clear